Time;durP1;ratioP1;P1;durP2;ratioP2;P2;SDS_P1;SDS_P2;PMS_P1;PMS_P2;Temp;Humidity;BMP_temperature;BMP_pressure;BME280_temperature;BME280_humidity;BME280_pressure;Samples;Min_cycle;Max_cycle;Signal;HPM_P1;HPM_P2
2021/07/24 00:01:51;;;;;;;12.73;8.77;;;16.40;93.30;;;;;;5014095;28;20630;-68
2021/07/24 00:04:17;;;;;;;13.07;8.65;;;16.30;93.30;;;;;;5013233;28;20088;-68
2021/07/24 00:06:43;;;;;;;11.32;7.38;;;16.30;93.40;;;;;;5013749;28;20111;-68
2021/07/24 00:09:09;;;;;;;11.20;7.50;;;16.40;93.30;;;;;;5028334;28;20076;-68
2021/07/24 00:11:35;;;;;;;12.55;8.73;;;16.30;93.30;;;;;;5033613;28;20436;-67
2021/07/24 00:14:01;;;;;;;14.52;8.55;;;16.30;93.40;;;;;;5032588;28;20026;-68
2021/07/24 00:16:26;;;;;;;11.25;7.78;;;16.30;93.40;;;;;;5033118;28;20360;-66
2021/07/24 00:18:52;;;;;;;12.32;7.78;;;16.30;93.40;;;;;;5032322;28;20072;-67
2021/07/24 00:21:18;;;;;;;11.63;8.15;;;16.30;93.40;;;;;;5033222;28;20036;-67
2021/07/24 00:23:44;;;;;;;13.27;8.55;;;16.30;93.50;;;;;;5032408;28;20732;-66
2021/07/24 00:26:13;;;;;;;13.57;8.82;;;16.20;93.40;;;;;;5030494;28;20112;-66
2021/07/24 00:28:40;;;;;;;12.38;7.85;;;16.20;93.40;;;;;;5032338;28;20025;-66
2021/07/24 00:31:06;;;;;;;12.80;8.57;;;16.20;93.50;;;;;;5033149;28;20021;-66
2021/07/24 00:33:31;;;;;;;13.15;7.75;;;16.20;93.50;;;;;;5030715;28;22026;-67
2021/07/24 00:35:57;;;;;;;12.82;7.95;;;16.20;93.50;;;;;;5023471;28;20123;-67
2021/07/24 00:38:25;;;;;;;10.38;7.03;;;16.20;93.50;;;;;;5020196;28;20160;-67
2021/07/24 00:40:54;;;;;;;11.93;7.40;;;16.20;93.60;;;;;;5033117;28;20475;-66
2021/07/24 00:43:24;;;;;;;11.65;7.90;;;16.10;93.50;;;;;;5019476;28;20112;-66
2021/07/24 00:45:52;;;;;;;10.38;7.18;;;16.10;93.50;;;;;;5013041;28;20476;-66
2021/07/24 00:48:21;;;;;;;12.95;8.07;;;16.10;93.60;;;;;;5010387;28;20037;-69
2021/07/24 00:50:48;;;;;;;11.88;7.18;;;16.10;93.50;;;;;;5012762;28;20424;-66
2021/07/24 00:53:21;;;;;;;13.32;8.25;;;16.10;93.50;;;;;;5012701;28;20098;-66
2021/07/24 00:55:48;;;;;;;11.70;7.38;;;16.10;93.60;;;;;;5012705;28;20111;-66
2021/07/24 00:58:46;;;;;;;10.38;6.95;;;16.10;93.50;;;;;;5011773;28;20036;-66
2021/07/24 01:01:12;;;;;;;13.55;7.88;;;16.10;93.40;;;;;;5010971;28;20046;-66
2021/07/24 01:03:38;;;;;;;11.90;8.15;;;16.10;93.60;;;;;;5011940;28;20049;-67
2021/07/24 01:06:03;;;;;;;11.52;7.72;;;16.10;93.60;;;;;;5012595;28;20507;-66
2021/07/24 01:08:35;;;;;;;12.52;8.02;;;16.00;93.60;;;;;;5011981;28;20105;-67
2021/07/24 01:11:01;;;;;;;11.32;7.68;;;16.00;93.60;;;;;;5012319;28;20124;-66
2021/07/24 01:13:28;;;;;;;10.25;7.32;;;16.00;93.60;;;;;;5011721;28;20567;-67
2021/07/24 01:15:54;;;;;;;10.60;7.18;;;16.00;93.60;;;;;;5012401;28;20030;-66
2021/07/24 01:18:20;;;;;;;12.02;7.28;;;16.00;93.60;;;;;;5011703;28;20040;-66
2021/07/24 01:20:48;;;;;;;11.43;7.25;;;16.00;93.70;;;;;;5012426;28;20041;-67
2021/07/24 01:23:17;;;;;;;10.57;7.25;;;15.90;93.70;;;;;;5012129;28;20037;-68
2021/07/24 01:25:47;;;;;;;10.23;7.70;;;15.90;93.70;;;;;;5017897;28;20033;-67
2021/07/24 01:28:13;;;;;;;11.32;7.05;;;15.90;93.80;;;;;;5023528;28;20420;-67
2021/07/24 01:30:42;;;;;;;11.60;7.68;;;15.90;93.80;;;;;;5016612;28;20037;-66
2021/07/24 01:33:10;;;;;;;10.98;7.15;;;15.80;93.70;;;;;;5015912;28;20029;-66
2021/07/24 01:35:36;;;;;;;12.27;7.93;;;15.80;94.00;;;;;;5022441;28;20407;-66
2021/07/24 01:38:07;;;;;;;10.63;7.40;;;15.80;93.80;;;;;;5029651;28;20040;-66
2021/07/24 01:40:32;;;;;;;11.07;8.10;;;15.80;93.80;;;;;;5031500;28;20026;-66
2021/07/24 01:42:58;;;;;;;12.40;7.97;;;15.70;93.70;;;;;;5025850;28;20482;-67
2021/07/24 01:45:24;;;;;;;12.48;8.30;;;15.70;93.80;;;;;;5016559;28;20033;-66
2021/07/24 01:47:50;;;;;;;11.35;7.80;;;15.70;93.80;;;;;;5030454;28;20069;-66
2021/07/24 01:53:01;;;;;;;11.55;8.35;;;15.70;93.80;;;;;;5011843;28;20034;-66
2021/07/24 01:55:42;;;;;;;11.13;8.10;;;15.60;93.90;;;;;;5011127;28;20034;-66
2021/07/24 01:58:12;;;;;;;12.05;7.70;;;15.60;93.80;;;;;;5015047;28;20108;-67
2021/07/24 02:00:38;;;;;;;12.45;7.50;;;15.70;93.90;;;;;;5022536;28;20038;-67
2021/07/24 02:03:08;;;;;;;11.48;8.20;;;15.60;93.90;;;;;;5020935;28;20034;-67
2021/07/24 02:05:46;;;;;;;12.02;7.30;;;15.60;93.90;;;;;;5010942;28;20104;-66
2021/07/24 02:08:19;;;;;;;12.40;7.32;;;15.60;93.90;;;;;;5027996;28;20511;-67
2021/07/24 02:10:45;;;;;;;11.90;8.02;;;15.60;94.10;;;;;;5031176;28;20118;-66
2021/07/24 02:13:11;;;;;;;13.43;7.72;;;15.60;94.10;;;;;;5030981;28;20083;-66
2021/07/24 02:15:37;;;;;;;11.32;8.07;;;15.60;94.10;;;;;;5022123;28;20038;-67
2021/07/24 02:18:04;;;;;;;11.75;7.95;;;15.60;94.10;;;;;;5010504;28;20091;-66
2021/07/24 02:20:30;;;;;;;13.68;8.65;;;15.60;94.10;;;;;;5011374;28;20080;-66
2021/07/24 02:22:56;;;;;;;12.70;8.40;;;15.60;94.30;;;;;;5011272;28;20030;-67
2021/07/24 02:25:23;;;;;;;10.93;7.90;;;15.60;94.20;;;;;;5025445;28;20479;-67
2021/07/24 02:27:50;;;;;;;11.80;7.90;;;15.50;94.20;;;;;;5024120;28;20518;-66
2021/07/24 02:30:16;;;;;;;12.85;8.10;;;15.50;94.20;;;;;;5011440;28;20044;-66
2021/07/24 02:32:42;;;;;;;11.93;7.55;;;15.50;94.20;;;;;;5016950;28;20079;-66
2021/07/24 02:35:09;;;;;;;11.88;7.28;;;15.50;94.20;;;;;;5017951;28;20527;-66
2021/07/24 02:37:36;;;;;;;10.93;7.40;;;15.50;94.20;;;;;;5027907;28;20159;-66
2021/07/24 02:40:03;;;;;;;13.98;7.68;;;15.50;94.20;;;;;;5011509;28;20026;-67
2021/07/24 02:42:29;;;;;;;11.73;8.23;;;15.50;94.20;;;;;;5011239;28;20484;-66
2021/07/24 02:44:55;;;;;;;13.68;7.80;;;15.50;94.20;;;;;;5010569;28;20069;-66
2021/07/24 02:47:20;;;;;;;14.00;7.47;;;15.50;94.20;;;;;;5010436;28;20033;-67
2021/07/24 02:49:46;;;;;;;11.43;7.90;;;15.50;94.20;;;;;;5007700;28;20029;-67
2021/07/24 02:52:12;;;;;;;12.90;7.95;;;15.50;94.20;;;;;;5027203;28;20124;-67
2021/07/24 02:54:38;;;;;;;10.05;7.22;;;15.50;94.20;;;;;;5029967;28;20499;-67
2021/07/24 02:57:04;;;;;;;10.70;7.35;;;15.50;94.20;;;;;;5030078;28;20164;-66
2021/07/24 02:59:30;;;;;;;13.30;8.20;;;15.50;94.20;;;;;;5030507;28;20045;-67
2021/07/24 03:01:56;;;;;;;14.57;7.70;;;15.40;94.20;;;;;;5030786;28;20041;-67
2021/07/24 03:04:21;;;;;;;10.15;7.00;;;15.40;94.20;;;;;;5029866;28;20069;-66
2021/07/24 03:06:47;;;;;;;12.32;7.50;;;15.50;94.30;;;;;;5030603;28;20064;-66
2021/07/24 03:09:15;;;;;;;12.48;7.68;;;15.50;94.20;;;;;;5013726;28;20065;-66
2021/07/24 03:11:40;;;;;;;10.90;7.35;;;15.40;94.20;;;;;;5010662;28;20424;-67
2021/07/24 03:14:06;;;;;;;10.38;6.90;;;15.40;94.20;;;;;;5013948;28;20026;-66
2021/07/24 03:16:32;;;;;;;12.02;7.75;;;15.40;94.20;;;;;;5014769;28;20109;-67
2021/07/24 03:18:58;;;;;;;10.18;7.20;;;15.40;94.20;;;;;;5014123;28;20033;-67
2021/07/24 03:21:23;;;;;;;9.80;6.97;;;15.40;94.20;;;;;;5030027;28;20038;-66
2021/07/24 03:23:49;;;;;;;10.88;7.88;;;15.40;94.20;;;;;;5013970;28;20037;-66
2021/07/24 03:26:15;;;;;;;11.20;7.57;;;15.40;94.20;;;;;;5011909;28;20038;-66
2021/07/24 03:28:41;;;;;;;11.43;7.57;;;15.40;94.20;;;;;;5014285;28;20043;-65
2021/07/24 03:31:06;;;;;;;10.40;7.38;;;15.40;94.30;;;;;;5014753;28;20183;-67
2021/07/24 03:33:32;;;;;;;13.45;7.25;;;15.30;94.20;;;;;;5020677;28;20066;-66
2021/07/24 03:35:58;;;;;;;11.60;7.63;;;15.30;94.40;;;;;;5023910;28;20116;-66
2021/07/24 03:38:24;;;;;;;10.40;7.63;;;15.30;94.40;;;;;;5025428;28;20108;-66
2021/07/24 03:40:49;;;;;;;12.25;7.72;;;15.30;94.50;;;;;;5014328;28;20042;-66
2021/07/24 03:43:15;;;;;;;9.77;7.22;;;15.30;94.50;;;;;;5026252;28;20043;-66
2021/07/24 03:45:41;;;;;;;10.95;7.00;;;15.30;94.40;;;;;;5033870;28;20116;-66
2021/07/24 03:48:07;;;;;;;10.95;6.80;;;15.30;94.40;;;;;;5032964;28;20029;-67
2021/07/24 03:50:33;;;;;;;11.48;7.10;;;15.30;94.40;;;;;;5031191;28;20030;-67
2021/07/24 03:53:01;;;;;;;9.02;7.07;;;15.30;94.40;;;;;;5033894;28;20029;-67
2021/07/24 03:55:26;;;;;;;11.55;7.65;;;15.40;94.40;;;;;;5033005;28;20030;-66
2021/07/24 03:57:55;;;;;;;9.93;7.20;;;15.40;94.40;;;;;;5033100;28;20034;-67
2021/07/24 04:00:22;;;;;;;10.32;6.90;;;15.40;94.30;;;;;;5034068;28;20022;-67
2021/07/24 04:02:49;;;;;;;11.50;7.43;;;15.40;94.30;;;;;;5033769;28;20029;-66
2021/07/24 04:05:15;;;;;;;14.05;7.75;;;15.40;94.30;;;;;;5032953;28;20454;-66
2021/07/24 04:07:42;;;;;;;10.68;6.80;;;15.40;94.30;;;;;;5029336;28;20095;-66
2021/07/24 04:10:09;;;;;;;10.20;7.20;;;15.40;94.30;;;;;;5013464;28;20030;-67
2021/07/24 04:12:36;;;;;;;10.40;7.57;;;15.40;94.40;;;;;;5013604;28;20076;-67
2021/07/24 04:15:03;;;;;;;11.63;7.03;;;15.40;94.30;;;;;;5011886;28;20030;-66
2021/07/24 04:17:29;;;;;;;10.80;6.43;;;15.40;94.30;;;;;;5013027;28;20396;-68
2021/07/24 04:19:56;;;;;;;10.23;6.43;;;15.40;94.30;;;;;;5013667;28;20109;-66
2021/07/24 04:22:22;;;;;;;10.23;6.90;;;15.40;94.30;;;;;;5013627;28;20060;-67
2021/07/24 04:24:48;;;;;;;8.90;5.85;;;15.40;94.30;;;;;;5012666;28;20045;-67
2021/07/24 04:27:14;;;;;;;12.52;7.32;;;15.50;94.30;;;;;;5010471;28;20030;-66
2021/07/24 04:29:39;;;;;;;11.23;7.00;;;15.40;94.30;;;;;;5013213;28;20073;-66
2021/07/24 04:32:05;;;;;;;11.10;6.82;;;15.50;94.30;;;;;;5014956;28;20029;-66
2021/07/24 04:34:31;;;;;;;10.45;6.47;;;15.50;94.30;;;;;;5023800;28;20026;-66
2021/07/24 04:36:57;;;;;;;9.80;5.95;;;15.50;94.20;;;;;;5019727;28;20121;-67
2021/07/24 04:39:23;;;;;;;8.43;6.28;;;15.50;94.10;;;;;;5027934;28;20040;-66
2021/07/24 04:41:49;;;;;;;9.93;6.40;;;15.50;94.10;;;;;;5032101;28;20041;-66
2021/07/24 04:44:15;;;;;;;10.32;6.82;;;15.60;94.10;;;;;;5012420;28;20045;-67
2021/07/24 04:46:41;;;;;;;11.55;6.50;;;15.60;94.10;;;;;;5013212;28;20400;-66
2021/07/24 04:49:07;;;;;;;8.70;5.85;;;15.60;94.10;;;;;;5009479;28;20168;-67
2021/07/24 04:51:33;;;;;;;9.32;6.53;;;15.70;94.10;;;;;;5023793;28;20041;-67
2021/07/24 04:53:59;;;;;;;8.60;6.03;;;15.70;94.00;;;;;;5031787;28;20029;-67
2021/07/24 04:56:26;;;;;;;10.80;7.10;;;15.70;94.00;;;;;;5032512;28;20033;-67
2021/07/24 04:58:52;;;;;;;9.95;6.78;;;15.70;94.00;;;;;;5031991;28;20033;-66
2021/07/24 05:01:19;;;;;;;9.73;6.55;;;15.80;93.90;;;;;;5031464;28;20037;-66
2021/07/24 05:03:45;;;;;;;10.73;5.90;;;15.80;94.00;;;;;;5031996;28;20104;-66
2021/07/24 05:06:10;;;;;;;9.50;5.85;;;15.80;93.90;;;;;;5032325;28;20059;-67
2021/07/24 05:08:37;;;;;;;10.55;6.80;;;15.90;93.80;;;;;;5020832;28;20637;-66
2021/07/24 05:11:03;;;;;;;10.35;6.05;;;15.90;93.80;;;;;;5012828;28;20026;-68
2021/07/24 05:13:30;;;;;;;7.72;5.65;;;16.00;93.70;;;;;;5012132;28;20036;-67
2021/07/24 05:15:56;;;;;;;8.15;5.88;;;16.00;93.70;;;;;;5012474;28;20030;-66
2021/07/24 05:18:22;;;;;;;9.27;5.93;;;16.10;93.70;;;;;;5011835;28;20053;-66
2021/07/24 05:20:48;;;;;;;8.75;5.93;;;16.00;93.60;;;;;;5012987;28;20487;-66
2021/07/24 05:23:14;;;;;;;6.78;5.07;;;16.10;93.50;;;;;;5011808;28;20030;-67
2021/07/24 05:25:41;;;;;;;6.60;5.03;;;16.20;93.50;;;;;;5009692;28;20034;-66
2021/07/24 05:28:07;;;;;;;7.53;5.43;;;16.30;93.40;;;;;;5011594;28;20030;-67
2021/07/24 05:30:33;;;;;;;8.10;4.93;;;16.30;93.30;;;;;;5012024;28;20037;-66
2021/07/24 05:32:59;;;;;;;9.02;5.22;;;16.30;93.20;;;;;;5017009;28;20049;-66
2021/07/24 05:35:24;;;;;;;7.65;5.13;;;16.40;93.20;;;;;;5017362;28;20033;-66
2021/07/24 05:37:50;;;;;;;7.90;5.68;;;16.40;93.40;;;;;;5028089;28;20034;-66
2021/07/24 05:40:16;;;;;;;6.97;4.78;;;16.50;93.10;;;;;;5012143;28;20061;-67
2021/07/24 05:42:41;;;;;;;8.63;5.32;;;16.50;93.00;;;;;;5019712;28;20025;-65
2021/07/24 05:45:08;;;;;;;7.05;5.28;;;16.50;93.00;;;;;;5030884;28;20636;-66
2021/07/24 05:47:33;;;;;;;8.43;6.15;;;16.60;93.00;;;;;;5029701;28;20414;-66
2021/07/24 05:50:00;;;;;;;10.50;6.00;;;16.60;93.30;;;;;;5028944;28;20029;-67
2021/07/24 05:52:26;;;;;;;9.10;6.03;;;16.60;93.30;;;;;;5013592;28;20038;-66
2021/07/24 05:54:52;;;;;;;7.07;5.03;;;16.70;93.30;;;;;;5010899;28;20042;-65
2021/07/24 05:57:18;;;;;;;7.30;5.07;;;16.70;93.50;;;;;;5011361;28;20026;-67
2021/07/24 05:59:44;;;;;;;8.23;4.75;;;16.70;93.50;;;;;;5011575;28;20108;-66
2021/07/24 06:02:16;;;;;;;7.07;4.63;;;16.80;93.30;;;;;;5011594;28;20488;-65
2021/07/24 06:04:43;;;;;;;8.27;5.28;;;16.90;93.20;;;;;;5020746;28;20033;-68
2021/07/24 06:07:09;;;;;;;7.90;5.18;;;16.90;93.30;;;;;;5017696;28;20061;-67
2021/07/24 06:09:34;;;;;;;11.13;6.35;;;16.90;93.30;;;;;;5021922;28;20037;-67
2021/07/24 06:12:00;;;;;;;8.57;5.97;;;17.00;93.40;;;;;;5026298;28;20040;-66
2021/07/24 06:14:26;;;;;;;10.38;5.65;;;17.00;93.40;;;;;;5010827;28;20034;-67
2021/07/24 06:16:53;;;;;;;7.85;5.25;;;17.10;93.50;;;;;;5026918;28;20036;-67
2021/07/24 06:19:20;;;;;;;10.90;6.00;;;17.20;93.40;;;;;;5029014;28;20029;-67
2021/07/24 06:21:46;;;;;;;8.85;5.85;;;17.20;93.60;;;;;;5016257;28;20120;-66
2021/07/24 06:24:14;;;;;;;10.25;6.28;;;17.30;93.40;;;;;;5016358;28;20521;-66
2021/07/24 06:26:40;;;;;;;8.27;5.53;;;17.40;93.40;;;;;;5028680;28;20037;-66
2021/07/24 06:29:06;;;;;;;12.23;6.70;;;17.40;93.30;;;;;;5030407;28;20041;-67
2021/07/24 06:31:32;;;;;;;10.50;6.18;;;17.50;93.20;;;;;;5029969;28;20476;-67
2021/07/24 06:34:00;;;;;;;11.35;6.43;;;17.50;93.20;;;;;;5019786;28;20045;-68
2021/07/24 06:36:26;;;;;;;9.73;5.63;;;17.60;93.20;;;;;;5020371;28;20562;-67
2021/07/24 06:38:52;;;;;;;8.48;5.72;;;17.70;92.90;;;;;;5019165;28;20041;-67
2021/07/24 06:41:18;;;;;;;10.10;5.88;;;17.80;92.90;;;;;;5025023;28;20041;-66
2021/07/24 06:43:43;;;;;;;8.35;5.88;;;17.80;92.80;;;;;;5010396;28;20041;-67
2021/07/24 06:46:10;;;;;;;9.63;5.75;;;17.90;92.70;;;;;;5021456;28;20442;-66
2021/07/24 06:48:36;;;;;;;9.30;5.68;;;17.90;92.50;;;;;;5027148;28;20749;-68
2021/07/24 06:51:04;;;;;;;8.23;5.18;;;18.00;92.30;;;;;;5030668;28;20038;-68
2021/07/24 06:53:30;;;;;;;7.60;5.60;;;18.00;92.20;;;;;;5028934;28;20030;-66
2021/07/24 06:55:56;;;;;;;7.32;4.97;;;18.00;92.10;;;;;;5009194;28;20045;-66
2021/07/24 06:58:22;;;;;;;7.45;4.85;;;18.10;92.10;;;;;;5025533;28;20569;-66
2021/07/24 07:00:48;;;;;;;8.32;5.05;;;18.10;92.00;;;;;;5010920;28;20109;-66
2021/07/24 07:03:13;;;;;;;5.88;4.53;;;18.20;91.90;;;;;;5010436;28;20077;-66
2021/07/24 07:05:39;;;;;;;6.88;4.60;;;18.20;91.80;;;;;;5015898;28;20036;-66
2021/07/24 07:08:05;;;;;;;7.32;4.53;;;18.30;91.70;;;;;;5016940;28;20120;-66
2021/07/24 07:10:30;;;;;;;8.93;4.82;;;18.30;91.40;;;;;;5020464;28;20097;-68
2021/07/24 07:12:56;;;;;;;7.53;4.28;;;18.40;91.20;;;;;;5020506;28;20513;-66
2021/07/24 07:15:25;;;;;;;6.55;4.38;;;18.40;91.20;;;;;;5018510;28;20030;-66
2021/07/24 07:17:52;;;;;;;8.88;5.30;;;18.50;91.10;;;;;;5016695;28;20050;-67
2021/07/24 07:20:18;;;;;;;6.13;3.83;;;18.50;91.00;;;;;;5010632;28;20037;-67
2021/07/24 07:22:43;;;;;;;6.93;4.55;;;18.60;90.80;;;;;;5016169;28;20022;-69
2021/07/24 07:25:10;;;;;;;5.80;4.32;;;18.60;90.50;;;;;;5027441;28;20076;-66
2021/07/24 07:27:40;;;;;;;6.15;4.13;;;18.60;90.10;;;;;;5007259;28;20109;-66
2021/07/24 07:30:07;;;;;;;7.88;4.15;;;18.70;90.20;;;;;;5018666;28;20061;-66
2021/07/24 07:32:33;;;;;;;6.22;3.63;;;18.70;90.30;;;;;;5028603;28;20032;-69
2021/07/24 07:34:58;;;;;;;8.75;4.78;;;18.80;90.20;;;;;;5018946;28;20022;-66
2021/07/24 07:37:24;;;;;;;5.25;4.22;;;18.80;90.00;;;;;;5026804;28;20033;-67
2021/07/24 07:39:50;;;;;;;7.95;4.57;;;18.80;89.70;;;;;;5022723;28;20057;-67
2021/07/24 07:42:16;;;;;;;7.47;4.88;;;18.90;89.70;;;;;;5013833;28;20040;-67
2021/07/24 07:44:42;;;;;;;5.28;3.75;;;19.00;89.70;;;;;;5029578;28;20064;-67
2021/07/24 07:47:07;;;;;;;5.32;3.45;;;19.00;88.90;;;;;;5022090;28;20037;-67
2021/07/24 07:49:33;;;;;;;6.20;3.45;;;19.10;87.90;;;;;;5007682;28;20729;-68
2021/07/24 07:51:59;;;;;;;7.47;4.40;;;19.20;88.00;;;;;;5010768;28;20018;-68
2021/07/24 07:54:24;;;;;;;5.57;4.13;;;19.20;87.90;;;;;;5009951;28;20385;-68
2021/07/24 07:56:50;;;;;;;5.90;4.18;;;19.30;88.20;;;;;;5028096;28;20028;-67
2021/07/24 07:59:16;;;;;;;5.65;3.88;;;19.30;88.20;;;;;;5030028;28;20123;-67
2021/07/24 08:01:41;;;;;;;6.00;4.40;;;19.40;88.30;;;;;;5033534;28;20583;-68
2021/07/24 08:04:07;;;;;;;5.47;4.53;;;19.40;88.00;;;;;;5032760;28;20033;-68
2021/07/24 08:06:33;;;;;;;11.90;5.07;;;19.40;87.60;;;;;;5033669;28;20038;-68
2021/07/24 08:08:58;;;;;;;7.85;4.70;;;19.40;86.70;;;;;;5033143;28;20037;-68
2021/07/24 08:11:25;;;;;;;4.88;3.97;;;19.50;87.20;;;;;;5030904;28;20372;-68
2021/07/24 08:13:54;;;;;;;5.28;3.90;;;19.60;87.40;;;;;;5024608;28;20038;-67
2021/07/24 08:16:20;;;;;;;5.95;4.13;;;19.60;87.00;;;;;;4999456;28;20437;-68
2021/07/24 08:18:46;;;;;;;7.50;4.32;;;19.70;86.80;;;;;;5032735;28;20040;-68
2021/07/24 08:21:12;;;;;;;5.95;4.00;;;19.70;85.90;;;;;;5025892;28;20034;-68
2021/07/24 08:23:37;;;;;;;7.13;4.05;;;19.80;86.10;;;;;;5013065;28;20472;-68
2021/07/24 08:26:03;;;;;;;8.65;4.88;;;19.80;85.80;;;;;;5010849;28;20026;-67
2021/07/24 08:28:29;;;;;;;5.78;4.22;;;19.90;85.00;;;;;;5012583;28;20038;-67
2021/07/24 08:30:56;;;;;;;6.45;4.47;;;19.90;84.60;;;;;;5030872;28;20029;-67
2021/07/24 08:33:21;;;;;;;6.93;4.00;;;19.90;83.80;;;;;;5025014;28;20029;-68
2021/07/24 08:35:47;;;;;;;8.35;4.20;;;19.90;83.60;;;;;;5021607;28;20087;-67
2021/07/24 08:38:13;;;;;;;8.45;4.38;;;19.90;82.80;;;;;;5026034;28;20034;-68
2021/07/24 08:40:39;;;;;;;8.23;4.35;;;19.90;83.10;;;;;;5013291;28;20431;-68
2021/07/24 08:43:05;;;;;;;5.97;4.20;;;20.00;82.90;;;;;;5023512;28;20037;-67
2021/07/24 08:45:32;;;;;;;6.50;4.15;;;20.10;83.10;;;;;;5032646;28;20442;-67
2021/07/24 08:47:59;;;;;;;6.32;4.30;;;20.20;82.70;;;;;;5032108;28;20140;-67
2021/07/24 08:50:25;;;;;;;5.45;4.05;;;20.20;82.50;;;;;;5028436;28;20061;-67
2021/07/24 08:52:55;;;;;;;8.70;4.28;;;20.30;82.50;;;;;;5027596;28;20037;-67
2021/07/24 08:55:23;;;;;;;9.00;4.43;;;20.40;82.30;;;;;;5011262;28;20037;-68
2021/07/24 08:57:50;;;;;;;7.30;4.13;;;20.50;81.50;;;;;;5012226;28;20069;-67
2021/07/24 09:00:18;;;;;;;5.13;3.72;;;20.50;80.40;;;;;;5012724;28;20141;-67
2021/07/24 09:02:45;;;;;;;5.22;3.63;;;20.50;80.30;;;;;;5012299;28;20053;-67
2021/07/24 09:05:14;;;;;;;4.65;3.88;;;20.60;80.20;;;;;;5012693;28;20117;-67
2021/07/24 09:07:42;;;;;;;7.05;4.18;;;20.70;79.90;;;;;;5012620;28;20100;-67
2021/07/24 09:10:09;;;;;;;5.18;4.60;;;20.80;79.70;;;;;;5031025;28;20083;-67
2021/07/24 09:12:36;;;;;;;8.65;4.28;;;20.90;79.90;;;;;;5022854;28;20025;-67
2021/07/24 09:15:03;;;;;;;7.05;3.95;;;20.90;79.50;;;;;;5020948;28;20030;-68
2021/07/24 09:17:29;;;;;;;6.20;4.18;;;21.00;79.60;;;;;;5023944;28;20036;-67
2021/07/24 09:19:56;;;;;;;8.82;4.57;;;21.00;78.90;;;;;;5032325;28;20029;-67
2021/07/24 09:22:33;;;;;;;5.95;3.97;;;21.00;78.40;;;;;;5014863;28;20030;-67
2021/07/24 09:25:18;;;;;;;4.72;3.70;;;21.10;78.80;;;;;;5012249;28;20034;-67
2021/07/24 09:27:46;;;;;;;6.30;4.38;;;21.20;78.80;;;;;;5011706;28;20030;-67
2021/07/24 09:30:24;;;;;;;6.72;4.05;;;21.30;78.70;;;;;;5023498;28;20033;-67
2021/07/24 09:33:06;;;;;;;7.10;4.20;;;21.40;78.20;;;;;;5031260;28;20091;-67
2021/07/24 09:35:46;;;;;;;5.90;3.97;;;21.50;77.30;;;;;;5020126;28;20545;-67
2021/07/24 09:38:31;;;;;;;4.82;3.83;;;21.60;76.50;;;;;;5023748;28;20042;-67
2021/07/24 09:40:59;;;;;;;5.63;3.40;;;21.60;75.40;;;;;;5011928;28;20026;-67
2021/07/24 09:43:41;;;;;;;4.97;3.85;;;21.60;76.00;;;;;;5025255;28;20045;-67
2021/07/24 09:46:18;;;;;;;5.32;3.97;;;21.60;76.60;;;;;;5028588;28;20076;-67
2021/07/24 09:48:51;;;;;;;4.22;3.55;;;21.70;75.10;;;;;;5028537;28;20026;-67
2021/07/24 09:51:33;;;;;;;6.63;4.00;;;21.70;75.50;;;;;;5022934;28;20030;-67
2021/07/24 09:54:00;;;;;;;4.97;3.78;;;21.70;75.30;;;;;;5010946;28;20030;-67
2021/07/24 09:56:40;;;;;;;4.93;3.60;;;21.80;75.80;;;;;;5011697;28;20100;-67
2021/07/24 09:59:21;;;;;;;6.20;4.07;;;21.90;75.80;;;;;;5011150;28;20045;-67
2021/07/24 10:02:00;;;;;;;;;;;21.90;75.20;;;;;;5012246;28;20026;-68
2021/07/24 10:04:31;;;;;;;5.55;3.92;;;21.90;75.20;;;;;;5010796;28;19991;-67
2021/07/24 10:06:59;;;;;;;4.93;3.55;;;22.00;75.00;;;;;;5011493;28;20041;-67
2021/07/24 10:09:29;;;;;;;7.97;4.40;;;22.10;74.60;;;;;;5028665;28;20057;-67
2021/07/24 10:12:03;;;;;;;5.45;4.05;;;22.20;74.40;;;;;;5021514;28;20486;-67
2021/07/24 10:14:29;;;;;;;5.80;4.07;;;22.30;74.00;;;;;;5018620;28;20029;-67
2021/07/24 10:16:57;;;;;;;4.95;3.83;;;22.30;72.90;;;;;;5023811;28;20038;-67
2021/07/24 10:19:25;;;;;;;6.15;3.85;;;22.30;73.40;;;;;;5008659;28;20060;-67
2021/07/24 10:21:53;;;;;;;4.70;3.83;;;22.40;73.80;;;;;;5024205;28;20068;-67
2021/07/24 10:24:20;;;;;;;5.22;3.50;;;22.40;72.80;;;;;;5030664;28;20045;-67
2021/07/24 10:27:04;;;;;;;4.00;3.25;;;22.50;71.80;;;;;;5031035;28;20075;-67
2021/07/24 10:29:36;;;;;;;4.50;3.67;;;22.60;72.10;;;;;;5030674;28;20040;-67
2021/07/24 10:32:10;;;;;;;5.63;3.85;;;22.60;71.80;;;;;;5031049;28;20396;-67
2021/07/24 10:34:50;;;;;;;4.82;3.97;;;22.50;71.90;;;;;;5024377;28;20053;-67
2021/07/24 10:37:34;;;;;;;5.20;4.18;;;22.60;72.20;;;;;;5026612;28;20041;-68
2021/07/24 10:40:20;;;;;;;6.43;4.10;;;22.60;72.50;;;;;;4991639;28;20090;-67
2021/07/24 10:42:53;;;;;;;5.15;3.92;;;22.70;70.50;;;;;;5008127;28;20033;-67
2021/07/24 10:45:35;;;;;;;4.88;3.60;;;22.80;71.00;;;;;;5030791;28;20030;-67
2021/07/24 10:48:20;;;;;;;6.25;3.42;;;22.80;70.80;;;;;;5029981;28;20038;-68
2021/07/24 10:50:58;;;;;;;4.75;3.92;;;22.90;71.00;;;;;;5026172;28;20391;-67
2021/07/24 10:53:27;;;;;;;4.95;3.33;;;22.90;71.00;;;;;;5007966;28;20113;-68
2021/07/24 10:55:57;;;;;;;5.63;3.80;;;22.90;70.90;;;;;;5011052;28;20636;-67
2021/07/24 10:58:28;;;;;;;6.80;4.05;;;23.00;70.40;;;;;;5010242;28;20113;-68
2021/07/24 11:00:55;;;;;;;;;;;23.10;70.60;;;;;;5009095;28;20065;-68
2021/07/24 11:03:44;;;;;;;4.72;3.58;;;23.10;68.80;;;;;;5009609;28;19910;-67
2021/07/24 11:06:30;;;;;;;3.63;3.30;;;23.20;68.40;;;;;;5010729;28;20042;-67
2021/07/24 11:09:18;;;;;;;7.88;4.07;;;23.20;68.30;;;;;;5009380;28;20136;-68
2021/07/24 11:12:05;;;;;;;4.30;3.80;;;23.30;68.60;;;;;;5015124;28;20055;-68
2021/07/24 11:14:36;;;;;;;6.07;4.68;;;23.30;69.20;;;;;;5013100;28;20163;-67
2021/07/24 11:17:05;;;;;;;4.70;4.10;;;23.50;68.00;;;;;;5021429;28;20071;-67
2021/07/24 11:19:32;;;;;;;4.82;4.25;;;23.50;68.50;;;;;;5019038;28;20495;-67
2021/07/24 11:22:14;;;;;;;7.15;4.47;;;23.70;69.00;;;;;;5014932;28;20095;-67
2021/07/24 11:24:50;;;;;;;5.47;3.75;;;23.90;70.80;;;;;;5020516;28;20038;-74
2021/07/24 11:27:27;;;;;;;3.58;3.28;;;24.20;72.30;;;;;;5008199;28;20108;-67
2021/07/24 11:29:54;;;;;;;5.05;3.63;;;24.90;71.20;;;;;;5016455;28;20034;-68
2021/07/24 11:32:27;;;;;;;6.65;3.78;;;25.70;68.70;;;;;;5015886;28;20109;-68
2021/07/24 11:34:57;;;;;;;7.07;3.90;;;27.00;65.50;;;;;;5019798;28;20026;-66
2021/07/24 11:37:45;;;;;;;5.97;4.45;;;29.00;59.60;;;;;;5018134;28;20038;-66
2021/07/24 11:40:19;;;;;;;5.82;4.45;;;31.90;51.80;;;;;;5020582;28;20048;-66
2021/07/24 11:43:00;;;;;;;4.97;4.43;;;34.50;45.90;;;;;;5018626;28;20052;-66
2021/07/24 11:45:31;;;;;;;5.18;4.72;;;36.70;40.80;;;;;;5022509;28;20037;-67
2021/07/24 11:48:15;;;;;;;5.40;4.25;;;38.10;38.00;;;;;;5024063;28;20101;-68
2021/07/24 11:50:43;;;;;;;4.47;4.07;;;39.50;34.80;;;;;;5021723;28;20037;-66
2021/07/24 11:53:13;;;;;;;4.65;4.25;;;40.00;31.70;;;;;;5022136;28;20026;-66
2021/07/24 11:55:42;;;;;;;;;;;40.60;31.10;;;;;;5020278;28;20038;-66
2021/07/24 11:58:26;;;;;;;5.22;4.72;;;40.70;31.30;;;;;;5023405;28;19909;-66
2021/07/24 12:00:56;;;;;;;5.40;5.00;;;40.90;31.40;;;;;;5017218;28;20078;-67
2021/07/24 12:03:24;;;;;;;7.32;4.63;;;41.00;32.30;;;;;;5025827;28;20072;-67
2021/07/24 12:05:59;;;;;;;6.90;4.65;;;41.10;31.80;;;;;;5022297;28;20043;-67
2021/07/24 12:08:26;;;;;;;5.32;4.82;;;41.00;31.50;;;;;;5018450;28;20032;-66
2021/07/24 12:10:53;;;;;;;6.20;5.60;;;40.80;31.20;;;;;;5022348;28;20102;-67
2021/07/24 12:13:24;;;;;;;5.32;4.82;;;40.70;31.00;;;;;;5015900;28;20403;-67
2021/07/24 12:16:03;;;;;;;5.88;5.28;;;40.40;30.70;;;;;;5019643;28;20030;-67
2021/07/24 12:18:55;;;;;;;6.63;5.40;;;40.40;31.70;;;;;;5020953;28;20033;-66
2021/07/24 12:21:25;;;;;;;9.40;5.72;;;40.30;32.30;;;;;;5016594;28;20085;-67
2021/07/24 12:23:58;;;;;;;7.05;6.35;;;39.90;31.80;;;;;;5019844;28;20100;-67
2021/07/24 12:26:31;;;;;;;6.25;5.10;;;39.80;31.80;;;;;;5016825;28;20026;-66
2021/07/24 12:28:57;;;;;;;6.32;5.75;;;39.50;32.50;;;;;;5017776;28;20025;-68
2021/07/24 12:31:31;;;;;;;6.55;5.80;;;39.00;32.00;;;;;;5019178;28;20029;-66
2021/07/24 12:34:04;;;;;;;6.80;5.75;;;38.50;32.80;;;;;;5019087;28;20084;-66
2021/07/24 12:36:30;;;;;;;7.32;6.35;;;37.90;33.90;;;;;;5017617;28;20055;-67
2021/07/24 12:38:57;;;;;;;8.60;6.03;;;37.40;35.30;;;;;;5020009;28;20120;-68
2021/07/24 12:41:33;;;;;;;6.50;5.13;;;36.80;34.70;;;;;;5020998;28;20037;-67
2021/07/24 12:44:05;;;;;;;6.50;5.72;;;36.40;35.80;;;;;;5019221;28;20037;-68
2021/07/24 12:46:31;;;;;;;6.05;5.30;;;36.00;35.80;;;;;;5017430;28;20033;-67
2021/07/24 12:48:57;;;;;;;9.10;6.13;;;35.60;37.40;;;;;;5018269;28;20132;-67
2021/07/24 12:51:42;;;;;;;6.90;6.10;;;35.20;37.10;;;;;;5020636;28;20034;-68
2021/07/24 12:54:16;;;;;;;7.32;6.50;;;35.50;37.60;;;;;;5018662;28;20064;-68